createdAt,value
2018-08-03T00:01:33.468Z,87.85
2018-08-03T00:04:02.704Z,87.64
2018-08-03T00:06:31.963Z,88.24
2018-08-03T00:09:01.201Z,88.22
2018-08-03T00:11:30.238Z,88.22
2018-08-03T00:13:59.530Z,88.05
2018-08-03T00:16:28.822Z,88.08
2018-08-03T00:18:58.129Z,87.88
2018-08-03T00:21:27.430Z,88.65
2018-08-03T00:23:56.685Z,88.59
2018-08-03T00:26:25.937Z,88.52
2018-08-03T00:28:55.213Z,88.53
2018-08-03T00:31:24.456Z,89.49
2018-08-03T00:33:53.703Z,90.17
2018-08-03T00:36:22.948Z,89.61
2018-08-03T00:38:52.216Z,88.62
2018-08-03T00:41:21.486Z,88.56
2018-08-03T00:43:50.878Z,89.30
2018-08-03T00:46:20.150Z,89.89
2018-08-03T00:48:49.601Z,90.04
2018-08-03T00:51:18.861Z,90.32
2018-08-03T00:53:48.216Z,90.94
2018-08-03T00:56:17.462Z,89.91
2018-08-03T00:58:46.840Z,91.05
2018-08-03T01:01:16.071Z,91.73
2018-08-03T01:03:45.280Z,91.51
2018-08-03T01:06:14.624Z,91.78
2018-08-03T01:08:44.935Z,91.83
2018-08-03T01:11:14.230Z,92.70
2018-08-03T01:13:43.491Z,93.19
2018-08-03T01:16:12.743Z,92.64
2018-08-03T01:18:42.022Z,92.43
2018-08-03T01:21:11.278Z,92.63
2018-08-03T01:23:40.586Z,92.31
2018-08-03T01:26:09.866Z,92.22
2018-08-03T01:28:39.146Z,93.11
2018-08-03T01:31:08.406Z,92.96
2018-08-03T01:33:37.659Z,93.35
2018-08-03T01:36:06.929Z,93.62
2018-08-03T01:38:36.195Z,93.76
2018-08-03T01:41:05.445Z,93.50
2018-08-03T01:43:34.713Z,93.41
2018-08-03T01:46:03.989Z,93.75
2018-08-03T01:48:33.289Z,93.93
2018-08-03T01:51:02.596Z,93.61
2018-08-03T01:53:31.882Z,94.10
2018-08-03T01:56:01.201Z,94.94
2018-08-03T01:58:30.466Z,94.38
2018-08-03T02:00:59.737Z,94.31
2018-08-03T02:03:29.018Z,94.76
2018-08-03T02:05:58.289Z,93.98
2018-08-03T02:08:27.615Z,94.45
2018-08-03T02:10:56.981Z,94.13
2018-08-03T02:13:26.310Z,94.71
2018-08-03T02:15:55.719Z,95.67
2018-08-03T02:18:25.067Z,95.96
2018-08-03T02:20:54.322Z,96.50
2018-08-03T02:23:23.614Z,95.70
2018-08-03T02:25:52.908Z,95.92
2018-08-03T02:28:22.197Z,96.20
2018-08-03T02:30:51.466Z,97.08
2018-08-03T02:33:20.739Z,97.32
2018-08-03T02:35:50.069Z,96.75
2018-08-03T02:38:19.330Z,96.83
2018-08-03T02:40:48.601Z,96.62
2018-08-03T02:43:17.888Z,96.98
2018-08-03T02:45:47.132Z,97.61
2018-08-03T02:48:16.437Z,96.83
2018-08-03T02:50:45.728Z,97.29
2018-08-03T02:53:14.990Z,97.60
2018-08-03T02:55:44.427Z,97.19
2018-08-03T02:58:13.719Z,97.29
2018-08-03T03:00:43.000Z,97.25
2018-08-03T03:03:12.278Z,98.15
2018-08-03T03:05:41.571Z,98.04
2018-08-03T03:08:10.878Z,97.96
2018-08-03T03:10:40.148Z,97.68
2018-08-03T03:13:09.420Z,98.15
2018-08-03T03:15:38.710Z,98.22
2018-08-03T03:18:08.010Z,98.07
2018-08-03T03:20:37.331Z,97.63
2018-08-03T03:23:06.566Z,99.37
2018-08-03T03:25:35.925Z,99.90
2018-08-03T03:28:05.237Z,99.69
2018-08-03T03:30:34.507Z,99.71
2018-08-03T03:33:03.954Z,99.69
2018-08-03T03:35:33.238Z,98.96
2018-08-03T03:38:02.629Z,99.00
2018-08-03T03:40:31.914Z,99.54
2018-08-03T03:43:01.193Z,100.00
2018-08-03T03:45:30.483Z,100.00
2018-08-03T03:47:59.750Z,100.00
2018-08-03T03:50:29.037Z,100.00
2018-08-03T03:52:58.303Z,100.00
2018-08-03T03:55:27.550Z,100.00
2018-08-03T03:57:56.889Z,100.00
2018-08-03T04:00:26.192Z,100.00
2018-08-03T04:02:55.461Z,100.00
2018-08-03T04:05:24.746Z,100.00
2018-08-03T04:07:54.003Z,100.00
2018-08-03T04:10:23.308Z,100.00
2018-08-03T04:12:52.623Z,100.00
2018-08-03T04:15:21.922Z,100.00
2018-08-03T04:17:51.182Z,100.00
2018-08-03T04:20:20.467Z,100.00
2018-08-03T04:22:49.724Z,100.00
2018-08-03T04:25:19.011Z,100.00
2018-08-03T04:27:48.334Z,100.00
2018-08-03T04:30:17.413Z,99.91
2018-08-03T04:32:46.726Z,100.00
2018-08-03T04:35:16.015Z,99.85
2018-08-03T04:37:45.366Z,99.73
2018-08-03T04:40:14.721Z,98.69
2018-08-03T04:42:44.014Z,98.33
2018-08-03T04:45:13.403Z,97.67
2018-08-03T04:47:42.686Z,97.51
2018-08-03T04:50:12.002Z,97.55
2018-08-03T04:52:41.270Z,97.13
2018-08-03T04:55:11.126Z,96.46
2018-08-03T04:57:40.405Z,96.73
2018-08-03T05:00:09.739Z,96.35
2018-08-03T05:02:39.052Z,96.47
2018-08-03T05:05:08.435Z,95.30
2018-08-03T05:07:37.760Z,95.61
2018-08-03T05:10:06.817Z,95.53
2018-08-03T05:12:36.419Z,94.99
2018-08-03T05:15:07.087Z,94.56
2018-08-03T05:17:36.557Z,95.20
2018-08-03T05:20:06.588Z,94.35
2018-08-03T05:22:35.915Z,92.23
2018-08-03T05:25:05.878Z,88.46
2018-08-03T05:27:35.191Z,85.77
2018-08-03T05:30:05.338Z,82.75
2018-08-03T05:32:34.662Z,81.32
2018-08-03T05:35:04.213Z,80.05
2018-08-03T05:37:33.386Z,79.38
2018-08-03T05:40:02.745Z,78.39
2018-08-03T05:42:32.049Z,77.55
2018-08-03T05:45:01.392Z,76.74
2018-08-03T05:47:30.943Z,76.59
2018-08-03T05:50:00.242Z,76.12
2018-08-03T05:52:29.574Z,73.99
2018-08-03T05:54:58.954Z,73.42
2018-08-03T05:57:28.314Z,74.88
2018-08-03T05:59:57.739Z,71.35
2018-08-03T06:02:27.035Z,72.45
2018-08-03T06:04:56.329Z,71.66
2018-08-03T06:07:25.609Z,73.59
2018-08-03T06:09:54.861Z,72.53
2018-08-03T06:12:24.202Z,73.81
2018-08-03T06:14:53.487Z,72.84
2018-08-03T06:17:22.807Z,72.91
2018-08-03T06:19:52.091Z,71.70
2018-08-03T06:22:21.405Z,73.46
2018-08-03T06:24:50.649Z,73.16
2018-08-03T06:27:20.091Z,71.09
2018-08-03T06:29:49.555Z,72.81
2018-08-03T06:32:18.793Z,72.68
2018-08-03T06:34:48.127Z,75.09
2018-08-03T06:37:17.467Z,72.09
2018-08-03T06:39:46.786Z,71.45
2018-08-03T06:42:16.109Z,72.43
2018-08-03T06:44:45.465Z,71.93
2018-08-03T06:47:14.566Z,71.25
2018-08-03T06:49:43.882Z,72.19
2018-08-03T06:52:13.349Z,71.57
2018-08-03T06:54:42.699Z,71.28
2018-08-03T06:57:12.092Z,69.25
2018-08-03T06:59:41.376Z,69.59
2018-08-03T07:02:10.802Z,70.87
2018-08-03T07:04:40.123Z,70.42
2018-08-03T07:07:09.444Z,70.31
2018-08-03T07:09:38.798Z,69.57
2018-08-03T07:12:08.155Z,68.12
2018-08-03T07:14:37.470Z,68.85
2018-08-03T07:17:07.149Z,67.25
2018-08-03T07:19:36.529Z,67.12
2018-08-03T07:22:05.850Z,65.92
2018-08-03T07:24:35.210Z,66.86
2018-08-03T07:27:04.266Z,66.92
2018-08-03T07:29:33.611Z,66.08
2018-08-03T07:32:02.847Z,63.23
2018-08-03T07:34:32.470Z,64.58
2018-08-03T07:37:01.867Z,63.88
2018-08-03T07:39:31.227Z,63.00
2018-08-03T07:42:00.539Z,62.57
2018-08-03T07:44:29.785Z,63.10
2018-08-03T07:46:59.037Z,61.49
2018-08-03T07:49:28.412Z,62.09
2018-08-03T07:51:57.841Z,61.07
2018-08-03T07:54:27.234Z,62.02
2018-08-03T07:56:57.383Z,60.00
2018-08-03T07:59:26.712Z,59.15
2018-08-03T08:01:55.998Z,58.92
2018-08-03T08:04:25.329Z,59.72
2018-08-03T08:06:54.608Z,59.86
2018-08-03T08:09:23.895Z,59.63
2018-08-03T08:11:54.176Z,58.74
2018-08-03T08:14:23.490Z,58.22
2018-08-03T08:16:52.753Z,57.85
2018-08-03T08:19:22.062Z,57.08
2018-08-03T08:21:51.364Z,57.62
2018-08-03T08:24:20.672Z,56.63
2018-08-03T08:26:49.962Z,55.00
2018-08-03T08:29:19.328Z,55.80
2018-08-03T08:31:48.661Z,57.62
2018-08-03T08:34:18.034Z,56.37
2018-08-03T08:36:47.290Z,55.91
2018-08-03T08:39:16.605Z,56.42
2018-08-03T08:41:45.889Z,54.18
2018-08-03T08:44:15.171Z,53.73
2018-08-03T08:46:44.490Z,54.56
2018-08-03T08:49:13.943Z,53.05
2018-08-03T08:51:43.199Z,54.01
2018-08-03T08:54:12.223Z,52.48
2018-08-03T08:56:41.513Z,53.71
2018-08-03T08:59:10.917Z,52.81
2018-08-03T09:01:40.308Z,53.03
2018-08-03T09:04:09.620Z,53.87
2018-08-03T09:06:38.982Z,52.66
2018-08-03T09:09:10.374Z,51.54
2018-08-03T09:11:40.068Z,51.09
2018-08-03T09:14:09.135Z,51.82
2018-08-03T09:16:38.466Z,51.62
2018-08-03T09:19:07.839Z,52.36
2018-08-03T09:21:37.188Z,52.34
2018-08-03T09:24:06.526Z,52.30
2018-08-03T09:26:35.872Z,51.57
2018-08-03T09:29:05.221Z,50.23
2018-08-03T09:31:35.601Z,49.56
2018-08-03T09:34:04.987Z,50.35
2018-08-03T09:36:34.596Z,51.23
2018-08-03T09:39:05.232Z,51.99
2018-08-03T09:41:34.694Z,50.98
2018-08-03T09:44:03.998Z,50.70
2018-08-03T09:46:33.454Z,51.65
2018-08-03T09:49:02.857Z,49.47
2018-08-03T09:51:32.174Z,51.13
2018-08-03T09:54:01.483Z,50.86
2018-08-03T09:56:30.987Z,50.36
2018-08-03T09:59:00.408Z,50.50
2018-08-03T10:01:29.786Z,50.32
2018-08-03T10:03:59.432Z,49.56
2018-08-03T10:06:28.773Z,48.90
2018-08-03T10:08:58.033Z,48.64
2018-08-03T10:11:27.408Z,49.44
2018-08-03T10:13:56.737Z,47.87
2018-08-03T10:16:26.145Z,48.21
2018-08-03T10:18:55.522Z,48.53
2018-08-03T10:21:24.911Z,48.64
2018-08-03T10:23:54.195Z,48.14
2018-08-03T10:26:23.674Z,47.48
2018-08-03T10:28:53.343Z,47.72
2018-08-03T10:31:22.808Z,48.04
2018-08-03T10:33:52.403Z,46.05
2018-08-03T10:36:21.750Z,47.49
2018-08-03T10:38:51.054Z,45.54
2018-08-03T10:41:20.417Z,46.75
2018-08-03T10:43:49.851Z,46.04
2018-08-03T10:46:19.255Z,46.11
2018-08-03T10:48:55.556Z,46.13
2018-08-03T10:51:24.886Z,46.85
2018-08-03T10:53:54.250Z,46.45
2018-08-03T10:56:23.702Z,44.25
2018-08-03T10:58:53.063Z,46.14
2018-08-03T11:01:22.614Z,44.53
2018-08-03T11:03:52.382Z,45.05
2018-08-03T11:06:21.716Z,46.18
2018-08-03T11:08:51.030Z,46.31
2018-08-03T11:11:21.226Z,44.64
2018-08-03T11:13:57.079Z,44.51
2018-08-03T11:16:26.379Z,44.98
2018-08-03T11:18:55.786Z,44.75
2018-08-03T11:21:25.142Z,44.61
2018-08-03T11:23:54.507Z,45.21
2018-08-03T11:26:23.875Z,44.66
2018-08-03T11:28:53.214Z,44.40
2018-08-03T11:31:23.645Z,42.83
2018-08-03T11:33:52.954Z,43.67
2018-08-03T11:36:22.283Z,43.16
2018-08-03T11:38:51.628Z,43.48
2018-08-03T11:41:20.946Z,42.84
2018-08-03T11:43:50.400Z,42.48
2018-08-03T11:46:19.863Z,42.37
2018-08-03T11:48:49.318Z,41.08
2018-08-03T11:51:18.758Z,40.36
2018-08-03T11:53:49.168Z,40.49
2018-08-03T11:56:18.652Z,39.91
2018-08-03T11:58:48.950Z,39.57
2018-08-03T12:01:18.070Z,42.12
2018-08-03T12:03:47.842Z,40.08
2018-08-03T12:06:17.194Z,40.40
2018-08-03T12:08:46.734Z,40.38
2018-08-03T12:11:16.168Z,38.81
2018-08-03T12:13:45.551Z,39.85
2018-08-03T12:16:15.045Z,38.35
2018-08-03T12:18:44.469Z,39.07
2018-08-03T12:21:13.777Z,39.28
2018-08-03T12:23:43.219Z,39.62
2018-08-03T12:26:12.909Z,38.75
2018-08-03T12:28:42.226Z,37.24
2018-08-03T12:31:11.569Z,37.33
2018-08-03T12:33:40.605Z,36.73
2018-08-03T12:36:09.976Z,36.72
2018-08-03T12:38:39.322Z,36.72
2018-08-03T12:41:08.671Z,38.25
2018-08-03T12:43:38.218Z,38.39
2018-08-03T12:46:07.566Z,37.56
2018-08-03T12:48:36.866Z,35.23
2018-08-03T12:51:06.209Z,36.34
2018-08-03T12:53:36.023Z,36.19
2018-08-03T12:56:05.375Z,36.31
2018-08-03T12:58:34.722Z,36.27
2018-08-03T13:01:04.060Z,36.16
2018-08-03T13:03:33.431Z,36.24
2018-08-03T13:06:02.767Z,35.96
2018-08-03T13:08:32.265Z,36.36
2018-08-03T13:11:01.448Z,36.69
2018-08-03T13:13:30.856Z,37.67
2018-08-03T13:16:00.145Z,38.64
2018-08-03T13:18:29.469Z,38.77
2018-08-03T13:20:58.871Z,39.09
2018-08-03T13:23:28.246Z,39.26
2018-08-03T13:25:57.667Z,37.85
2018-08-03T13:28:26.979Z,36.83
2018-08-03T13:30:56.359Z,36.50
2018-08-03T13:33:25.779Z,36.13
2018-08-03T13:35:55.184Z,36.48
2018-08-03T13:38:24.523Z,35.69
2018-08-03T13:40:54.027Z,36.59
2018-08-03T13:43:23.495Z,35.90
2018-08-03T13:45:52.645Z,34.55
2018-08-03T13:48:28.816Z,34.10
2018-08-03T13:50:58.222Z,35.12
2018-08-03T13:53:27.555Z,33.99
2018-08-03T13:55:57.065Z,34.94
2018-08-03T13:58:26.471Z,35.12
2018-08-03T14:01:13.059Z,34.00
2018-08-03T14:03:42.680Z,34.96
2018-08-03T14:06:12.087Z,34.68
2018-08-03T14:08:44.099Z,33.15
2018-08-03T14:11:13.938Z,33.53
2018-08-03T14:13:43.341Z,34.05
2018-08-03T14:16:13.039Z,34.60
2018-08-03T14:18:42.813Z,33.63
2018-08-03T14:21:12.306Z,34.06
2018-08-03T14:23:41.660Z,32.21
2018-08-03T14:26:11.033Z,33.86
2018-08-03T14:28:40.562Z,33.66
2018-08-03T14:31:09.682Z,33.80
2018-08-03T14:33:39.089Z,35.02
2018-08-03T14:36:08.485Z,34.01
2018-08-03T14:38:37.878Z,33.50
2018-08-03T14:41:07.415Z,33.34
2018-08-03T14:43:36.803Z,33.44
2018-08-03T14:46:06.183Z,34.38
2018-08-03T14:48:35.619Z,33.50
2018-08-03T14:51:05.162Z,33.76
2018-08-03T14:53:34.495Z,34.79
2018-08-03T14:56:03.935Z,33.34
2018-08-03T14:58:33.357Z,34.18
2018-08-03T15:01:02.941Z,34.37
2018-08-03T15:03:32.239Z,34.40
2018-08-03T15:06:01.670Z,36.38
2018-08-03T15:08:31.130Z,36.92
2018-08-03T15:11:00.517Z,37.08
2018-08-03T15:13:29.916Z,36.98
2018-08-03T15:15:58.988Z,36.79
2018-08-03T15:18:28.328Z,35.96
2018-08-03T15:20:57.701Z,35.17
2018-08-03T15:23:27.074Z,34.61
2018-08-03T15:25:56.471Z,34.41
2018-08-03T15:28:25.795Z,33.87
2018-08-03T15:30:55.160Z,33.61
2018-08-03T15:33:24.668Z,33.97
2018-08-03T15:35:54.420Z,34.13
2018-08-03T15:38:23.775Z,34.27
2018-08-03T15:40:53.170Z,34.65
2018-08-03T15:43:22.414Z,33.59
2018-08-03T15:45:51.745Z,36.04
2018-08-03T15:48:21.043Z,34.64
2018-08-03T15:50:50.410Z,35.44
2018-08-03T15:53:19.718Z,35.07
2018-08-03T15:55:49.064Z,34.47
2018-08-03T15:58:18.347Z,34.96
2018-08-03T16:00:47.710Z,35.03
2018-08-03T16:03:17.047Z,35.73
2018-08-03T16:05:46.336Z,36.33
2018-08-03T16:08:15.754Z,35.53
2018-08-03T16:10:45.040Z,35.46
2018-08-03T16:13:14.447Z,35.62
2018-08-03T16:15:43.565Z,35.70
2018-08-03T16:18:12.838Z,35.49
2018-08-03T16:20:42.119Z,35.07
2018-08-03T16:23:11.410Z,34.90
2018-08-03T16:25:40.753Z,34.83
2018-08-03T16:28:10.264Z,35.02
2018-08-03T16:30:39.594Z,35.52
2018-08-03T16:33:08.995Z,35.43
2018-08-03T16:35:38.388Z,35.67
2018-08-03T16:38:07.733Z,35.63
2018-08-03T16:40:37.146Z,35.81
2018-08-03T16:43:06.541Z,35.91
2018-08-03T16:45:35.855Z,36.06
2018-08-03T16:48:05.254Z,36.12
2018-08-03T16:50:34.757Z,36.37
2018-08-03T16:53:04.124Z,36.59
2018-08-03T16:55:33.470Z,36.63
2018-08-03T16:58:02.766Z,36.64
2018-08-03T17:00:32.065Z,36.74
2018-08-03T17:03:01.487Z,36.17
2018-08-03T17:05:30.867Z,34.22
2018-08-03T17:08:00.238Z,32.99
2018-08-03T17:10:29.685Z,32.03
2018-08-03T17:12:59.035Z,31.77
2018-08-03T17:15:28.367Z,31.23
2018-08-03T17:17:58.906Z,31.13
2018-08-03T17:20:28.844Z,30.85
2018-08-03T17:22:58.387Z,30.81
2018-08-03T17:25:28.347Z,30.25
2018-08-03T17:27:58.013Z,30.21
2018-08-03T17:30:27.427Z,30.48
2018-08-03T17:32:56.816Z,30.24
2018-08-03T17:35:26.276Z,30.45
2018-08-03T17:37:55.633Z,31.22
2018-08-03T17:40:24.951Z,32.51
2018-08-03T17:42:54.301Z,33.45
2018-08-03T17:45:23.718Z,35.11
2018-08-03T17:47:53.085Z,35.60
2018-08-03T17:50:22.378Z,35.62
2018-08-03T17:52:51.783Z,36.63
2018-08-03T17:55:21.063Z,35.98
2018-08-03T17:57:50.468Z,36.54
2018-08-03T18:00:20.027Z,37.79
2018-08-03T18:02:49.510Z,38.05
2018-08-03T18:05:19.047Z,38.21
2018-08-03T18:07:48.400Z,37.41
2018-08-03T18:10:18.092Z,37.52
2018-08-03T18:12:47.362Z,37.23
2018-08-03T18:15:16.863Z,37.32
2018-08-03T18:17:46.180Z,37.89
2018-08-03T18:20:15.667Z,39.14
2018-08-03T18:22:45.008Z,40.03
2018-08-03T18:25:14.370Z,39.83
2018-08-03T18:27:43.733Z,39.36
2018-08-03T18:30:13.069Z,39.97
2018-08-03T18:32:42.404Z,40.72
2018-08-03T18:35:11.670Z,40.82
2018-08-03T18:37:41.038Z,41.50
2018-08-03T18:40:11.087Z,43.21
2018-08-03T18:42:40.708Z,44.38
2018-08-03T18:45:10.078Z,47.24
2018-08-03T18:47:39.447Z,48.93
2018-08-03T18:50:08.822Z,49.80
2018-08-03T18:52:38.233Z,50.12
2018-08-03T18:55:07.657Z,50.56
2018-08-03T18:57:36.986Z,51.07
2018-08-03T19:00:06.999Z,51.33
2018-08-03T19:02:36.339Z,52.12
2018-08-03T19:05:07.030Z,51.96
2018-08-03T19:07:36.524Z,52.13
2018-08-03T19:10:05.900Z,52.39
2018-08-03T19:12:35.147Z,53.56
2018-08-03T19:15:04.639Z,52.39
2018-08-03T19:17:33.914Z,52.95
2018-08-03T19:20:03.415Z,54.02
2018-08-03T19:22:32.692Z,54.19
2018-08-03T19:25:02.099Z,53.42
2018-08-03T19:27:31.422Z,53.77
2018-08-03T19:30:00.792Z,54.24
2018-08-03T19:32:30.115Z,54.66
2018-08-03T19:34:59.342Z,55.00
2018-08-03T19:37:29.418Z,55.55
2018-08-03T19:39:58.777Z,55.98
2018-08-03T19:42:28.167Z,56.76
2018-08-03T19:44:57.476Z,56.80
2018-08-03T19:47:27.043Z,57.64
2018-08-03T19:49:56.327Z,56.79
2018-08-03T19:52:25.855Z,57.37
2018-08-03T19:54:55.122Z,57.35
2018-08-03T19:57:24.385Z,57.76
2018-08-03T19:59:53.748Z,57.17
2018-08-03T20:02:23.039Z,58.03
2018-08-03T20:04:52.342Z,57.94
2018-08-03T20:07:22.215Z,57.47
2018-08-03T20:09:51.474Z,58.43
2018-08-03T20:12:20.758Z,57.81
2018-08-03T20:14:50.059Z,57.66
2018-08-03T20:17:19.081Z,58.40
2018-08-03T20:19:48.287Z,58.79
2018-08-03T20:22:18.886Z,58.25
2018-08-03T20:24:48.285Z,58.44
2018-08-03T20:27:17.714Z,58.27
2018-08-03T20:29:47.074Z,57.92
2018-08-03T20:32:16.402Z,58.25
2018-08-03T20:34:45.828Z,58.28
2018-08-03T20:37:15.115Z,58.17
2018-08-03T20:39:44.461Z,58.05
2018-08-03T20:42:13.738Z,58.33
2018-08-03T20:44:43.092Z,58.16
2018-08-03T20:47:12.400Z,59.53
2018-08-03T20:49:41.790Z,59.31
2018-08-03T20:52:11.138Z,60.47
2018-08-03T20:54:43.314Z,60.29
2018-08-03T20:57:12.618Z,60.35
2018-08-03T20:59:42.038Z,60.04
2018-08-03T21:02:11.344Z,60.29
2018-08-03T21:04:40.728Z,60.07
2018-08-03T21:07:09.999Z,60.98
2018-08-03T21:09:39.314Z,60.42
2018-08-03T21:12:08.744Z,61.30
2018-08-03T21:14:38.087Z,60.13
2018-08-03T21:17:07.162Z,60.73
2018-08-03T21:19:36.498Z,61.44
2018-08-03T21:22:05.812Z,60.83
2018-08-03T21:24:40.276Z,62.06
2018-08-03T21:27:09.635Z,62.54
2018-08-03T21:29:39.321Z,63.55
2018-08-03T21:32:08.675Z,63.63
2018-08-03T21:34:38.011Z,63.83
2018-08-03T21:37:07.297Z,64.16
2018-08-03T21:39:36.837Z,64.56
2018-08-03T21:42:06.338Z,63.98
2018-08-03T21:44:35.784Z,64.08
2018-08-03T21:47:04.792Z,64.33
2018-08-03T21:49:34.049Z,63.24
2018-08-03T21:52:03.370Z,63.00
2018-08-03T21:54:32.641Z,63.74
2018-08-03T21:57:01.967Z,64.59
2018-08-03T21:59:31.263Z,62.69
2018-08-03T22:02:00.296Z,64.03
2018-08-03T22:04:29.526Z,62.83
2018-08-03T22:06:58.793Z,64.80
2018-08-03T22:09:27.782Z,63.55
2018-08-03T22:11:57.143Z,63.51
2018-08-03T22:14:26.362Z,63.18
2018-08-03T22:16:55.678Z,63.79
2018-08-03T22:19:24.931Z,65.37
2018-08-03T22:21:54.176Z,64.96
2018-08-03T22:24:23.533Z,64.77
2018-08-03T22:26:52.922Z,64.63
2018-08-03T22:29:22.283Z,64.16
2018-08-03T22:31:51.655Z,63.56
2018-08-03T22:34:21.013Z,66.44
2018-08-03T22:36:50.357Z,66.03
2018-08-03T22:39:19.819Z,64.90
2018-08-03T22:41:49.221Z,65.19
2018-08-03T22:44:18.529Z,65.91
2018-08-03T22:46:47.805Z,65.57
2018-08-03T22:49:16.849Z,66.52
2018-08-03T22:51:46.125Z,67.76
2018-08-03T22:54:15.380Z,68.03
2018-08-03T22:56:44.640Z,68.73
2018-08-03T22:59:13.954Z,67.86
2018-08-03T23:01:43.431Z,66.77
2018-08-03T23:04:12.693Z,65.97
2018-08-03T23:06:42.139Z,66.02
2018-08-03T23:09:11.343Z,65.50
2018-08-03T23:11:40.652Z,65.68
2018-08-03T23:14:09.878Z,65.73
2018-08-03T23:16:39.121Z,65.93
2018-08-03T23:19:08.426Z,65.49
2018-08-03T23:21:37.650Z,66.04
2018-08-03T23:24:06.966Z,66.05
2018-08-03T23:26:36.204Z,65.00
2018-08-03T23:29:05.213Z,65.17
2018-08-03T23:31:34.522Z,63.94
2018-08-03T23:34:03.829Z,63.46
2018-08-03T23:36:33.076Z,65.27
2018-08-03T23:39:02.310Z,68.27
2018-08-03T23:41:31.542Z,68.95
2018-08-03T23:44:00.818Z,69.09
2018-08-03T23:46:30.066Z,68.81
2018-08-03T23:48:59.310Z,68.64
2018-08-03T23:51:28.535Z,68.82
2018-08-03T23:53:57.801Z,67.80
2018-08-03T23:56:27.018Z,66.99
2018-08-03T23:58:56.241Z,68.90
